sensor_id;sensor_type;location;lat;lon;timestamp;pressure;altitude;pressure_sealevel;temperature;humidity
67740;BME280;54536;50.090;14.420;2024-01-11T00:00:45;100823.53;;;-1.16;58.26
67740;BME280;54536;50.090;14.420;2024-01-11T00:03:31;100827.47;;;-1.45;57.12
67740;BME280;54536;50.090;14.420;2024-01-11T00:05:57;100815.47;;;-1.48;57.89
67740;BME280;54536;50.090;14.420;2024-01-11T00:08:23;100818.13;;;-1.54;58.61
67740;BME280;54536;50.090;14.420;2024-01-11T00:10:49;100818.69;;;-1.33;57.11
67740;BME280;54536;50.090;14.420;2024-01-11T00:13:15;100820.97;;;-1.16;56.57
67740;BME280;54536;50.090;14.420;2024-01-11T00:15:41;100821.03;;;-1.21;57.10
67740;BME280;54536;50.090;14.420;2024-01-11T00:18:07;100814.75;;;-1.57;57.46
67740;BME280;54536;50.090;14.420;2024-01-11T00:20:33;100816.94;;;-1.34;57.37
67740;BME280;54536;50.090;14.420;2024-01-11T00:22:59;100811.31;;;-1.58;57.23
67740;BME280;54536;50.090;14.420;2024-01-11T00:25:25;100813.63;;;-1.39;57.12
67740;BME280;54536;50.090;14.420;2024-01-11T00:27:51;100815.50;;;-1.49;57.73
67740;BME280;54536;50.090;14.420;2024-01-11T00:30:17;100819.16;;;-1.64;57.71
67740;BME280;54536;50.090;14.420;2024-01-11T00:32:43;100819.00;;;-1.53;59.07
67740;BME280;54536;50.090;14.420;2024-01-11T00:35:09;100810.41;;;-1.54;57.61
67740;BME280;54536;50.090;14.420;2024-01-11T00:37:35;100811.59;;;-1.73;57.79
67740;BME280;54536;50.090;14.420;2024-01-11T00:40:02;100805.50;;;-1.69;58.01
67740;BME280;54536;50.090;14.420;2024-01-11T00:42:28;100806.53;;;-1.81;58.11
67740;BME280;54536;50.090;14.420;2024-01-11T00:44:54;100805.56;;;-1.72;58.88
67740;BME280;54536;50.090;14.420;2024-01-11T00:47:20;100806.34;;;-1.70;57.83
67740;BME280;54536;50.090;14.420;2024-01-11T00:49:46;100796.31;;;-1.87;58.11
67740;BME280;54536;50.090;14.420;2024-01-11T00:52:12;100795.56;;;-1.94;57.90
67740;BME280;54536;50.090;14.420;2024-01-11T00:54:39;100788.88;;;-2.05;59.30
67740;BME280;54536;50.090;14.420;2024-01-11T00:57:06;100787.94;;;-2.03;58.82
67740;BME280;54536;50.090;14.420;2024-01-11T00:59:32;100790.53;;;-2.03;59.34
67740;BME280;54536;50.090;14.420;2024-01-11T01:01:58;100797.09;;;-1.82;59.20
67740;BME280;54536;50.090;14.420;2024-01-11T01:04:30;100789.94;;;-1.65;59.79
67740;BME280;54536;50.090;14.420;2024-01-11T01:06:57;100779.63;;;-1.63;60.14
67740;BME280;54536;50.090;14.420;2024-01-11T01:09:23;100775.50;;;-1.75;58.27
67740;BME280;54536;50.090;14.420;2024-01-11T01:11:49;100778.19;;;-1.81;58.06
67740;BME280;54536;50.090;14.420;2024-01-11T01:14:16;100781.44;;;-1.70;59.15
67740;BME280;54536;50.090;14.420;2024-01-11T01:16:42;100786.81;;;-1.83;58.42
67740;BME280;54536;50.090;14.420;2024-01-11T01:19:08;100785.19;;;-1.91;57.81
67740;BME280;54536;50.090;14.420;2024-01-11T01:21:34;100787.69;;;-1.84;57.75
67740;BME280;54536;50.090;14.420;2024-01-11T01:24:00;100796.25;;;-1.84;57.25
67740;BME280;54536;50.090;14.420;2024-01-11T01:26:26;100792.63;;;-1.71;57.09
67740;BME280;54536;50.090;14.420;2024-01-11T01:28:52;100797.56;;;-1.57;57.91
67740;BME280;54536;50.090;14.420;2024-01-11T01:31:18;100795.91;;;-1.61;56.69
67740;BME280;54536;50.090;14.420;2024-01-11T01:33:44;100790.75;;;-1.59;57.71
67740;BME280;54536;50.090;14.420;2024-01-11T01:36:10;100784.88;;;-1.71;58.58
67740;BME280;54536;50.090;14.420;2024-01-11T01:38:36;100786.59;;;-1.70;57.21
67740;BME280;54536;50.090;14.420;2024-01-11T01:41:07;100787.34;;;-1.63;56.86
67740;BME280;54536;50.090;14.420;2024-01-11T01:43:33;100782.56;;;-1.86;57.44
67740;BME280;54536;50.090;14.420;2024-01-11T01:46:00;100788.66;;;-1.93;57.28
67740;BME280;54536;50.090;14.420;2024-01-11T01:48:29;100790.78;;;-2.20;58.41
67740;BME280;54536;50.090;14.420;2024-01-11T01:50:56;100788.78;;;-1.99;57.68
67740;BME280;54536;50.090;14.420;2024-01-11T01:53:23;100793.78;;;-1.89;57.56
67740;BME280;54536;50.090;14.420;2024-01-11T01:55:52;100786.75;;;-1.80;57.63
67740;BME280;54536;50.090;14.420;2024-01-11T01:58:19;100782.41;;;-1.77;58.15
67740;BME280;54536;50.090;14.420;2024-01-11T02:00:49;100789.41;;;-1.85;57.15
67740;BME280;54536;50.090;14.420;2024-01-11T02:03:16;100772.50;;;-2.03;58.55
67740;BME280;54536;50.090;14.420;2024-01-11T02:05:43;100760.25;;;-1.90;58.97
67740;BME280;54536;50.090;14.420;2024-01-11T02:08:15;100757.25;;;-2.17;58.08
67740;BME280;54536;50.090;14.420;2024-01-11T02:10:42;100762.38;;;-2.15;58.73
67740;BME280;54536;50.090;14.420;2024-01-11T02:13:09;100763.41;;;-2.27;58.72
67740;BME280;54536;50.090;14.420;2024-01-11T02:15:35;100762.88;;;-2.52;57.79
67740;BME280;54536;50.090;14.420;2024-01-11T02:18:02;100766.09;;;-2.36;57.71
67740;BME280;54536;50.090;14.420;2024-01-11T02:20:28;100759.53;;;-2.59;58.11
67740;BME280;54536;50.090;14.420;2024-01-11T02:23:01;100763.06;;;-2.64;58.37
67740;BME280;54536;50.090;14.420;2024-01-11T02:25:27;100756.44;;;-2.85;58.65
67740;BME280;54536;50.090;14.420;2024-01-11T02:27:53;100763.19;;;-2.76;58.41
67740;BME280;54536;50.090;14.420;2024-01-11T02:30:20;100764.13;;;-2.80;59.17
67740;BME280;54536;50.090;14.420;2024-01-11T02:32:48;100762.25;;;-2.68;58.29
67740;BME280;54536;50.090;14.420;2024-01-11T02:35:15;100753.41;;;-2.48;57.63
67740;BME280;54536;50.090;14.420;2024-01-11T02:37:42;100745.84;;;-2.62;57.77
67740;BME280;54536;50.090;14.420;2024-01-11T02:40:09;100753.53;;;-2.59;57.68
67740;BME280;54536;50.090;14.420;2024-01-11T02:42:36;100747.34;;;-2.44;58.33
67740;BME280;54536;50.090;14.420;2024-01-11T02:45:03;100750.25;;;-2.72;58.11
67740;BME280;54536;50.090;14.420;2024-01-11T02:47:30;100759.00;;;-2.85;59.85
67740;BME280;54536;50.090;14.420;2024-01-11T02:49:56;100758.69;;;-2.59;58.46
67740;BME280;54536;50.090;14.420;2024-01-11T02:52:25;100755.09;;;-2.49;57.37
67740;BME280;54536;50.090;14.420;2024-01-11T02:54:51;100753.97;;;-2.29;57.33
67740;BME280;54536;50.090;14.420;2024-01-11T02:57:17;100750.16;;;-2.61;58.05
67740;BME280;54536;50.090;14.420;2024-01-11T02:59:43;100740.78;;;-2.68;58.17
67740;BME280;54536;50.090;14.420;2024-01-11T03:02:09;100745.03;;;-2.64;57.66
67740;BME280;54536;50.090;14.420;2024-01-11T03:04:35;100751.03;;;-2.65;57.50
67740;BME280;54536;50.090;14.420;2024-01-11T03:07:01;100761.91;;;-2.43;58.24
67740;BME280;54536;50.090;14.420;2024-01-11T03:09:27;100776.47;;;-2.41;57.55
67740;BME280;54536;50.090;14.420;2024-01-11T03:11:53;100769.44;;;-2.29;61.20
67740;BME280;54536;50.090;14.420;2024-01-11T03:14:19;100767.78;;;-2.32;59.02
67740;BME280;54536;50.090;14.420;2024-01-11T03:16:45;100764.28;;;-2.28;58.15
67740;BME280;54536;50.090;14.420;2024-01-11T03:19:12;100755.19;;;-2.53;59.08
67740;BME280;54536;50.090;14.420;2024-01-11T03:21:44;100739.97;;;-2.70;58.56
67740;BME280;54536;50.090;14.420;2024-01-11T03:24:11;100748.09;;;-2.39;57.38
67740;BME280;54536;50.090;14.420;2024-01-11T03:26:38;100752.25;;;-2.27;57.37
67740;BME280;54536;50.090;14.420;2024-01-11T03:29:04;100755.75;;;-2.31;57.82
67740;BME280;54536;50.090;14.420;2024-01-11T03:31:30;100748.16;;;-2.41;57.78
67740;BME280;54536;50.090;14.420;2024-01-11T03:33:56;100744.91;;;-2.55;57.81
67740;BME280;54536;50.090;14.420;2024-01-11T03:36:25;100749.28;;;-2.62;57.92
67740;BME280;54536;50.090;14.420;2024-01-11T03:38:51;100756.25;;;-2.70;57.63
67740;BME280;54536;50.090;14.420;2024-01-11T03:41:17;100752.44;;;-2.43;58.22
67740;BME280;54536;50.090;14.420;2024-01-11T03:43:44;100746.41;;;-2.39;58.37
67740;BME280;54536;50.090;14.420;2024-01-11T03:46:10;100759.81;;;-2.82;57.29
67740;BME280;54536;50.090;14.420;2024-01-11T03:48:36;100765.81;;;-2.78;58.06
67740;BME280;54536;50.090;14.420;2024-01-11T03:51:02;100761.13;;;-2.50;58.73
67740;BME280;54536;50.090;14.420;2024-01-11T03:53:29;100768.16;;;-2.63;58.58
67740;BME280;54536;50.090;14.420;2024-01-11T03:55:54;100754.63;;;-2.77;58.97
67740;BME280;54536;50.090;14.420;2024-01-11T03:58:21;100758.13;;;-2.81;57.64
67740;BME280;54536;50.090;14.420;2024-01-11T04:00:46;100757.16;;;-2.74;58.33
67740;BME280;54536;50.090;14.420;2024-01-11T04:03:13;100774.13;;;-2.59;58.57
67740;BME280;54536;50.090;14.420;2024-01-11T04:05:39;100771.47;;;-2.53;57.75
67740;BME280;54536;50.090;14.420;2024-01-11T04:08:06;100765.59;;;-2.61;58.23
67740;BME280;54536;50.090;14.420;2024-01-11T04:10:32;100766.72;;;-2.85;57.98
67740;BME280;54536;50.090;14.420;2024-01-11T04:12:59;100768.63;;;-3.01;58.64
67740;BME280;54536;50.090;14.420;2024-01-11T04:15:25;100764.06;;;-2.77;58.73
67740;BME280;54536;50.090;14.420;2024-01-11T04:17:52;100767.84;;;-3.08;58.61
67740;BME280;54536;50.090;14.420;2024-01-11T04:20:22;100760.78;;;-2.90;58.30
67740;BME280;54536;50.090;14.420;2024-01-11T04:22:50;100774.38;;;-2.77;58.24
67740;BME280;54536;50.090;14.420;2024-01-11T04:25:16;100776.16;;;-2.86;59.18
67740;BME280;54536;50.090;14.420;2024-01-11T04:27:42;100772.50;;;-2.66;59.05
67740;BME280;54536;50.090;14.420;2024-01-11T04:30:08;100774.34;;;-2.74;57.76
67740;BME280;54536;50.090;14.420;2024-01-11T04:32:34;100779.44;;;-2.71;58.21
67740;BME280;54536;50.090;14.420;2024-01-11T04:35:00;100764.84;;;-2.71;58.34
67740;BME280;54536;50.090;14.420;2024-01-11T04:37:26;100772.44;;;-2.60;57.27
67740;BME280;54536;50.090;14.420;2024-01-11T04:39:52;100782.69;;;-2.57;57.49
67740;BME280;54536;50.090;14.420;2024-01-11T04:42:18;100768.50;;;-2.90;57.30
67740;BME280;54536;50.090;14.420;2024-01-11T04:44:44;100749.28;;;-2.62;57.46
67740;BME280;54536;50.090;14.420;2024-01-11T04:47:10;100741.16;;;-2.97;57.74
67740;BME280;54536;50.090;14.420;2024-01-11T04:49:36;100734.31;;;-3.00;57.53
67740;BME280;54536;50.090;14.420;2024-01-11T04:52:02;100732.75;;;-3.15;57.54
67740;BME280;54536;50.090;14.420;2024-01-11T04:54:29;100739.81;;;-3.32;58.42
67740;BME280;54536;50.090;14.420;2024-01-11T04:56:55;100747.69;;;-3.50;58.93
67740;BME280;54536;50.090;14.420;2024-01-11T04:59:21;100744.00;;;-3.20;57.90
67740;BME280;54536;50.090;14.420;2024-01-11T05:01:47;100754.31;;;-3.23;57.74
67740;BME280;54536;50.090;14.420;2024-01-11T05:04:13;100758.59;;;-3.25;57.22
67740;BME280;54536;50.090;14.420;2024-01-11T05:06:39;100755.16;;;-3.24;57.33
67740;BME280;54536;50.090;14.420;2024-01-11T05:09:05;100745.56;;;-3.09;56.82
67740;BME280;54536;50.090;14.420;2024-01-11T05:11:31;100749.88;;;-3.11;56.59
67740;BME280;54536;50.090;14.420;2024-01-11T05:13:57;100746.63;;;-3.28;56.73
67740;BME280;54536;50.090;14.420;2024-01-11T05:16:26;100748.25;;;-3.19;57.92
67740;BME280;54536;50.090;14.420;2024-01-11T05:18:54;100754.34;;;-3.28;57.74
67740;BME280;54536;50.090;14.420;2024-01-11T05:21:21;100750.88;;;-3.25;58.50
67740;BME280;54536;50.090;14.420;2024-01-11T05:23:47;100746.59;;;-3.23;57.18
67740;BME280;54536;50.090;14.420;2024-01-11T05:26:16;100750.13;;;-3.35;58.21
67740;BME280;54536;50.090;14.420;2024-01-11T05:28:43;100762.91;;;-3.26;57.88
67740;BME280;54536;50.090;14.420;2024-01-11T05:31:11;100752.38;;;-3.04;57.42
67740;BME280;54536;50.090;14.420;2024-01-11T05:33:38;100755.84;;;-3.09;57.05
67740;BME280;54536;50.090;14.420;2024-01-11T05:36:05;100763.56;;;-3.09;56.99
67740;BME280;54536;50.090;14.420;2024-01-11T05:38:30;100757.41;;;-2.95;56.47
67740;BME280;54536;50.090;14.420;2024-01-11T05:40:57;100749.81;;;-3.06;57.19
67740;BME280;54536;50.090;14.420;2024-01-11T05:43:23;100752.56;;;-3.24;57.44
67740;BME280;54536;50.090;14.420;2024-01-11T05:45:50;100766.28;;;-3.24;57.18
67740;BME280;54536;50.090;14.420;2024-01-11T05:48:16;100768.22;;;-3.43;57.17
67740;BME280;54536;50.090;14.420;2024-01-11T05:50:43;100765.31;;;-3.11;57.78
67740;BME280;54536;50.090;14.420;2024-01-11T05:53:11;100770.59;;;-3.23;56.49
67740;BME280;54536;50.090;14.420;2024-01-11T05:55:37;100773.06;;;-3.15;56.85
67740;BME280;54536;50.090;14.420;2024-01-11T05:58:03;100769.72;;;-3.22;56.53
67740;BME280;54536;50.090;14.420;2024-01-11T06:00:29;100755.25;;;-3.32;56.79
67740;BME280;54536;50.090;14.420;2024-01-11T06:02:55;100768.25;;;-3.50;57.88
67740;BME280;54536;50.090;14.420;2024-01-11T06:05:22;100764.72;;;-3.37;56.43
67740;BME280;54536;50.090;14.420;2024-01-11T06:07:48;100763.94;;;-3.45;57.17
67740;BME280;54536;50.090;14.420;2024-01-11T06:10:14;100772.59;;;-3.57;57.23
67740;BME280;54536;50.090;14.420;2024-01-11T06:12:40;100770.88;;;-3.52;57.38
67740;BME280;54536;50.090;14.420;2024-01-11T06:15:07;100769.03;;;-3.39;57.85
67740;BME280;54536;50.090;14.420;2024-01-11T06:17:33;100767.28;;;-3.36;57.43
67740;BME280;54536;50.090;14.420;2024-01-11T06:20:00;100765.44;;;-3.24;57.62
67740;BME280;54536;50.090;14.420;2024-01-11T06:22:25;100763.88;;;-3.41;56.95
67740;BME280;54536;50.090;14.420;2024-01-11T06:24:52;100763.75;;;-3.25;57.09
67740;BME280;54536;50.090;14.420;2024-01-11T06:27:17;100771.75;;;-3.58;57.39
67740;BME280;54536;50.090;14.420;2024-01-11T06:29:43;100774.19;;;-3.39;57.10
67740;BME280;54536;50.090;14.420;2024-01-11T06:32:09;100776.06;;;-3.58;58.02
67740;BME280;54536;50.090;14.420;2024-01-11T06:34:36;100784.44;;;-3.38;56.75
67740;BME280;54536;50.090;14.420;2024-01-11T06:37:02;100780.09;;;-3.33;57.68
67740;BME280;54536;50.090;14.420;2024-01-11T06:39:29;100788.66;;;-3.34;56.91
67740;BME280;54536;50.090;14.420;2024-01-11T06:41:57;100778.63;;;-3.58;56.81
67740;BME280;54536;50.090;14.420;2024-01-11T06:44:25;100771.69;;;-3.48;57.50
67740;BME280;54536;50.090;14.420;2024-01-11T06:46:50;100771.53;;;-3.35;57.31
67740;BME280;54536;50.090;14.420;2024-01-11T06:49:17;100769.91;;;-3.42;57.00
67740;BME280;54536;50.090;14.420;2024-01-11T06:51:42;100782.00;;;-3.55;56.90
67740;BME280;54536;50.090;14.420;2024-01-11T06:54:09;100778.56;;;-3.52;57.26
67740;BME280;54536;50.090;14.420;2024-01-11T06:56:34;100782.63;;;-3.28;55.74
67740;BME280;54536;50.090;14.420;2024-01-11T06:59:01;100789.56;;;-3.36;57.11
67740;BME280;54536;50.090;14.420;2024-01-11T07:01:27;100791.34;;;-3.44;56.46
67740;BME280;54536;50.090;14.420;2024-01-11T07:03:54;100789.66;;;-3.47;56.10
67740;BME280;54536;50.090;14.420;2024-01-11T07:06:20;100777.75;;;-3.56;56.62
67740;BME280;54536;50.090;14.420;2024-01-11T07:08:46;100766.81;;;-3.81;57.67
67740;BME280;54536;50.090;14.420;2024-01-11T07:11:12;100772.69;;;-3.68;57.46
67740;BME280;54536;50.090;14.420;2024-01-11T07:13:39;100765.75;;;-3.55;57.10
67740;BME280;54536;50.090;14.420;2024-01-11T07:16:05;100766.59;;;-3.55;56.69
67740;BME280;54536;50.090;14.420;2024-01-11T07:18:32;100766.75;;;-3.74;57.01
67740;BME280;54536;50.090;14.420;2024-01-11T07:20:59;100759.78;;;-3.60;56.79
67740;BME280;54536;50.090;14.420;2024-01-11T07:23:27;100765.03;;;-3.71;56.96
67740;BME280;54536;50.090;14.420;2024-01-11T07:25:53;100771.63;;;-3.44;56.23
67740;BME280;54536;50.090;14.420;2024-01-11T07:28:19;100779.41;;;-3.50;56.75
67740;BME280;54536;50.090;14.420;2024-01-11T07:30:51;100782.88;;;-3.54;58.02
67740;BME280;54536;50.090;14.420;2024-01-11T07:33:19;100779.47;;;-3.56;57.12
67740;BME280;54536;50.090;14.420;2024-01-11T07:35:47;100767.31;;;-3.40;56.89
67740;BME280;54536;50.090;14.420;2024-01-11T07:38:14;100774.91;;;-3.28;56.75
67740;BME280;54536;50.090;14.420;2024-01-11T07:40:40;100778.22;;;-3.15;56.62
67740;BME280;54536;50.090;14.420;2024-01-11T07:43:06;100772.25;;;-3.19;56.22
67740;BME280;54536;50.090;14.420;2024-01-11T07:45:32;100760.91;;;-2.99;56.28
67740;BME280;54536;50.090;14.420;2024-01-11T07:47:59;100761.22;;;-3.30;57.04
67740;BME280;54536;50.090;14.420;2024-01-11T07:50:25;100750.72;;;-3.12;55.85
67740;BME280;54536;50.090;14.420;2024-01-11T07:52:52;100731.03;;;-3.13;55.89
67740;BME280;54536;50.090;14.420;2024-01-11T07:55:17;100740.59;;;-3.25;55.64
67740;BME280;54536;50.090;14.420;2024-01-11T07:57:44;100742.31;;;-3.26;56.60
67740;BME280;54536;50.090;14.420;2024-01-11T08:00:10;100731.91;;;-3.15;55.88
67740;BME280;54536;50.090;14.420;2024-01-11T08:02:36;100723.38;;;-3.19;55.83
67740;BME280;54536;50.090;14.420;2024-01-11T08:05:03;100725.00;;;-3.12;56.01
67740;BME280;54536;50.090;14.420;2024-01-11T08:07:31;100715.84;;;-3.36;55.85
67740;BME280;54536;50.090;14.420;2024-01-11T08:09:57;100731.38;;;-3.45;56.09
67740;BME280;54536;50.090;14.420;2024-01-11T08:12:23;100742.50;;;-3.44;56.14
67740;BME280;54536;50.090;14.420;2024-01-11T08:14:49;100739.75;;;-3.26;56.24
67740;BME280;54536;50.090;14.420;2024-01-11T08:17:15;100718.88;;;-3.01;56.94
67740;BME280;54536;50.090;14.420;2024-01-11T08:19:42;100699.06;;;-2.95;56.07
67740;BME280;54536;50.090;14.420;2024-01-11T08:22:10;100699.38;;;-3.21;56.33
67740;BME280;54536;50.090;14.420;2024-01-11T08:24:36;100711.22;;;-3.08;55.70
67740;BME280;54536;50.090;14.420;2024-01-11T08:27:02;100730.72;;;-2.87;55.73
67740;BME280;54536;50.090;14.420;2024-01-11T08:29:28;100722.22;;;-2.95;55.20
67740;BME280;54536;50.090;14.420;2024-01-11T08:31:55;100714.44;;;-2.87;55.70
67740;BME280;54536;50.090;14.420;2024-01-11T08:34:22;100716.84;;;-2.75;55.95
67740;BME280;54536;50.090;14.420;2024-01-11T08:36:49;100711.69;;;-2.73;55.83
67740;BME280;54536;50.090;14.420;2024-01-11T08:39:15;100701.19;;;-2.60;55.41
67740;BME280;54536;50.090;14.420;2024-01-11T08:41:41;100699.38;;;-2.51;55.40
67740;BME280;54536;50.090;14.420;2024-01-11T08:44:07;100687.66;;;-2.74;55.50
67740;BME280;54536;50.090;14.420;2024-01-11T08:46:33;100694.28;;;-2.56;55.09
67740;BME280;54536;50.090;14.420;2024-01-11T08:49:01;100686.28;;;-2.39;54.59
67740;BME280;54536;50.090;14.420;2024-01-11T08:51:30;100690.09;;;-2.62;55.04
67740;BME280;54536;50.090;14.420;2024-01-11T08:53:56;100693.34;;;-2.52;55.15
67740;BME280;54536;50.090;14.420;2024-01-11T08:56:23;100683.03;;;-2.50;56.27
67740;BME280;54536;50.090;14.420;2024-01-11T08:58:49;100687.09;;;-2.36;55.24
67740;BME280;54536;50.090;14.420;2024-01-11T09:01:16;100695.50;;;-2.21;54.90
67740;BME280;54536;50.090;14.420;2024-01-11T09:03:42;100685.13;;;-2.18;54.57
67740;BME280;54536;50.090;14.420;2024-01-11T09:06:08;100690.28;;;-2.20;55.34
67740;BME280;54536;50.090;14.420;2024-01-11T09:08:34;100703.66;;;-1.95;55.27
67740;BME280;54536;50.090;14.420;2024-01-11T09:11:00;100710.28;;;-1.80;55.33
67740;BME280;54536;50.090;14.420;2024-01-11T09:13:28;100715.41;;;-1.78;55.04
67740;BME280;54536;50.090;14.420;2024-01-11T09:15:55;100719.03;;;-1.90;54.36
67740;BME280;54536;50.090;14.420;2024-01-11T09:18:22;100716.38;;;-1.85;55.22
67740;BME280;54536;50.090;14.420;2024-01-11T09:20:48;100723.66;;;-1.58;55.60
67740;BME280;54536;50.090;14.420;2024-01-11T09:23:15;100720.50;;;-1.75;54.14
67740;BME280;54536;50.090;14.420;2024-01-11T09:25:42;100716.78;;;-1.59;55.92
67740;BME280;54536;50.090;14.420;2024-01-11T09:28:08;100718.59;;;-1.62;55.58
67740;BME280;54536;50.090;14.420;2024-01-11T09:30:34;100708.69;;;-1.39;55.65
67740;BME280;54536;50.090;14.420;2024-01-11T09:33:00;100718.78;;;-1.27;53.84
67740;BME280;54536;50.090;14.420;2024-01-11T09:35:27;100722.13;;;-1.22;53.62
67740;BME280;54536;50.090;14.420;2024-01-11T09:37:53;100723.72;;;-1.14;53.15
67740;BME280;54536;50.090;14.420;2024-01-11T09:40:20;100705.00;;;-1.24;54.16
67740;BME280;54536;50.090;14.420;2024-01-11T09:42:46;100703.88;;;-1.11;54.57
67740;BME280;54536;50.090;14.420;2024-01-11T09:45:13;100686.66;;;-1.12;54.68
67740;BME280;54536;50.090;14.420;2024-01-11T09:47:41;100693.00;;;-1.28;54.89
67740;BME280;54536;50.090;14.420;2024-01-11T09:50:11;100700.75;;;-1.28;54.63
67740;BME280;54536;50.090;14.420;2024-01-11T09:52:47;100708.38;;;-1.22;55.41
67740;BME280;54536;50.090;14.420;2024-01-11T09:55:17;100705.28;;;-0.96;54.83
67740;BME280;54536;50.090;14.420;2024-01-11T09:57:48;100705.63;;;-1.13;55.23
67740;BME280;54536;50.090;14.420;2024-01-11T10:00:19;100694.88;;;-0.93;55.40
67740;BME280;54536;50.090;14.420;2024-01-11T10:02:48;100682.09;;;-0.99;54.39
67740;BME280;54536;50.090;14.420;2024-01-11T10:05:16;100679.38;;;-0.91;54.44
67740;BME280;54536;50.090;14.420;2024-01-11T10:07:42;100694.66;;;-0.82;54.54
67740;BME280;54536;50.090;14.420;2024-01-11T10:10:09;100671.41;;;-0.82;54.81
67740;BME280;54536;50.090;14.420;2024-01-11T10:12:38;100678.25;;;-0.78;54.69
67740;BME280;54536;50.090;14.420;2024-01-11T10:15:06;100671.22;;;-0.72;54.89
67740;BME280;54536;50.090;14.420;2024-01-11T10:17:41;100672.66;;;-0.60;54.65
67740;BME280;54536;50.090;14.420;2024-01-11T10:20:15;100670.13;;;-0.63;54.62
67740;BME280;54536;50.090;14.420;2024-01-11T10:22:43;100669.09;;;-0.54;54.78
67740;BME280;54536;50.090;14.420;2024-01-11T10:25:14;100659.47;;;-0.48;54.69
67740;BME280;54536;50.090;14.420;2024-01-11T10:27:43;100660.13;;;-0.39;54.71
67740;BME280;54536;50.090;14.420;2024-01-11T10:30:11;100657.66;;;-0.44;55.48
67740;BME280;54536;50.090;14.420;2024-01-11T10:32:43;100664.03;;;-0.21;55.82
67740;BME280;54536;50.090;14.420;2024-01-11T10:35:09;100669.25;;;0.11;55.51
67740;BME280;54536;50.090;14.420;2024-01-11T10:37:37;100671.09;;;0.06;54.35
67740;BME280;54536;50.090;14.420;2024-01-11T10:40:08;100662.88;;;0.25;54.46
67740;BME280;54536;50.090;14.420;2024-01-11T10:42:44;100670.00;;;0.16;53.71
67740;BME280;54536;50.090;14.420;2024-01-11T10:45:15;100668.00;;;0.26;53.46
67740;BME280;54536;50.090;14.420;2024-01-11T10:47:54;100673.28;;;0.21;53.60
67740;BME280;54536;50.090;14.420;2024-01-11T10:50:25;100666.31;;;0.25;54.16
67740;BME280;54536;50.090;14.420;2024-01-11T10:53:36;100678.34;;;0.26;54.04
67740;BME280;54536;50.090;14.420;2024-01-11T10:55:55;100656.94;;;0.21;54.12
67740;BME280;54536;50.090;14.420;2024-01-11T10:58:24;100659.28;;;0.30;53.35
67740;BME280;54536;50.090;14.420;2024-01-11T11:00:54;100672.53;;;0.18;53.67
67740;BME280;54536;50.090;14.420;2024-01-11T11:03:23;100665.00;;;0.09;53.86
67740;BME280;54536;50.090;14.420;2024-01-11T11:05:53;100643.53;;;0.38;54.00
67740;BME280;54536;50.090;14.420;2024-01-11T11:08:22;100647.66;;;0.45;53.59
67740;BME280;54536;50.090;14.420;2024-01-11T11:10:59;100652.28;;;0.65;53.08
67740;BME280;54536;50.090;14.420;2024-01-11T11:13:26;100644.34;;;0.73;53.09
67740;BME280;54536;50.090;14.420;2024-01-11T11:15:54;100618.03;;;0.86;53.10
67740;BME280;54536;50.090;14.420;2024-01-11T11:18:24;100623.66;;;1.01;52.25
67740;BME280;54536;50.090;14.420;2024-01-11T11:20:51;100632.38;;;0.98;52.59
67740;BME280;54536;50.090;14.420;2024-01-11T11:23:18;100626.31;;;0.99;52.87
67740;BME280;54536;50.090;14.420;2024-01-11T11:25:46;100634.06;;;0.99;52.44
67740;BME280;54536;50.090;14.420;2024-01-11T11:28:15;100634.06;;;0.99;52.69
67740;BME280;54536;50.090;14.420;2024-01-11T11:30:43;100634.09;;;0.98;52.79
67740;BME280;54536;50.090;14.420;2024-01-11T11:33:25;100628.22;;;1.21;52.68
67740;BME280;54536;50.090;14.420;2024-01-11T11:35:57;100617.34;;;1.09;53.21
67740;BME280;54536;50.090;14.420;2024-01-11T11:38:26;100608.94;;;1.03;53.08
67740;BME280;54536;50.090;14.420;2024-01-11T11:40:56;100595.69;;;1.12;53.71
67740;BME280;54536;50.090;14.420;2024-01-11T11:43:23;100585.56;;;1.32;53.48
67740;BME280;54536;50.090;14.420;2024-01-11T11:45:52;100576.31;;;1.24;53.23
67740;BME280;54536;50.090;14.420;2024-01-11T11:51:17;100574.22;;;1.08;53.46
67740;BME280;54536;50.090;14.420;2024-01-11T11:53:46;100575.56;;;1.20;53.23
67740;BME280;54536;50.090;14.420;2024-01-11T11:56:13;100565.47;;;1.12;53.29
67740;BME280;54536;50.090;14.420;2024-01-11T11:58:43;100568.25;;;1.06;53.24
67740;BME280;54536;50.090;14.420;2024-01-11T12:01:10;100562.50;;;0.97;53.65
67740;BME280;54536;50.090;14.420;2024-01-11T12:03:38;100556.78;;;1.13;53.69
67740;BME280;54536;50.090;14.420;2024-01-11T12:06:08;100552.53;;;1.11;53.61
67740;BME280;54536;50.090;14.420;2024-01-11T12:08:36;100543.16;;;1.08;54.02
67740;BME280;54536;50.090;14.420;2024-01-11T12:11:04;100538.22;;;1.27;54.27
67740;BME280;54536;50.090;14.420;2024-01-11T12:13:31;100530.44;;;1.27;53.54
67740;BME280;54536;50.090;14.420;2024-01-11T12:15:58;100526.44;;;1.44;53.72
67740;BME280;54536;50.090;14.420;2024-01-11T12:18:24;100521.44;;;1.39;53.72
67740;BME280;54536;50.090;14.420;2024-01-11T12:20:51;100516.38;;;1.61;52.94
67740;BME280;54536;50.090;14.420;2024-01-11T12:23:19;100502.25;;;1.45;52.71
67740;BME280;54536;50.090;14.420;2024-01-11T12:25:46;100500.63;;;1.40;53.04
67740;BME280;54536;50.090;14.420;2024-01-11T12:28:12;100493.56;;;1.46;53.24
67740;BME280;54536;50.090;14.420;2024-01-11T12:30:39;100499.47;;;1.51;52.96
67740;BME280;54536;50.090;14.420;2024-01-11T12:33:06;100502.50;;;1.63;53.25
67740;BME280;54536;50.090;14.420;2024-01-11T12:35:33;100498.19;;;1.62;52.80
67740;BME280;54536;50.090;14.420;2024-01-11T12:40:26;100487.31;;;1.76;53.51
67740;BME280;54536;50.090;14.420;2024-01-11T12:42:53;100487.09;;;2.07;52.49
67740;BME280;54536;50.090;14.420;2024-01-11T12:45:20;100488.16;;;2.02;52.13